createdAt,value
2019-03-26T00:01:58.203Z,2.87
2019-03-26T00:08:05.059Z,2.60
2019-03-26T00:14:12.571Z,2.70
2019-03-26T00:20:19.397Z,3.13
2019-03-26T00:26:26.008Z,3.27
2019-03-26T00:32:32.731Z,3.03
2019-03-26T00:38:39.454Z,2.63
2019-03-26T00:44:46.023Z,3.40
2019-03-26T00:50:52.802Z,2.80
2019-03-26T00:56:59.715Z,2.83
2019-03-26T01:03:07.356Z,2.97
2019-03-26T01:09:14.055Z,2.80
2019-03-26T01:15:20.662Z,2.17
2019-03-26T01:21:27.429Z,2.60
2019-03-26T01:27:34.256Z,2.53
2019-03-26T01:33:40.776Z,2.37
2019-03-26T01:39:47.351Z,2.23
2019-03-26T01:45:54.104Z,1.90
2019-03-26T01:52:00.908Z,2.33
2019-03-26T01:58:07.772Z,2.27
2019-03-26T02:04:14.428Z,2.23
2019-03-26T02:10:21.070Z,2.40
2019-03-26T02:16:27.919Z,2.03
2019-03-26T02:22:34.567Z,2.27
2019-03-26T02:28:41.142Z,2.30
2019-03-26T02:34:48.024Z,2.37
2019-03-26T02:40:54.548Z,2.00
2019-03-26T02:47:01.165Z,1.90
2019-03-26T02:53:09.046Z,2.60
2019-03-26T02:59:15.667Z,3.10
2019-03-26T03:05:35.196Z,2.80
2019-03-26T03:11:30.604Z,2.70
2019-03-26T03:17:37.146Z,2.63
2019-03-26T03:23:43.663Z,2.47
2019-03-26T03:29:50.211Z,3.27
2019-03-26T03:35:56.760Z,3.27
2019-03-26T03:42:03.470Z,2.80
2019-03-26T03:48:10.690Z,2.70
2019-03-26T03:54:17.881Z,2.30
2019-03-26T04:00:41.310Z,2.83
2019-03-26T04:06:47.925Z,3.33
2019-03-26T04:12:54.464Z,2.50
2019-03-26T04:19:01.005Z,2.83
2019-03-26T04:25:07.563Z,2.90
2019-03-26T04:31:14.053Z,2.80
2019-03-26T04:37:20.683Z,2.73
2019-03-26T04:43:27.277Z,2.70
2019-03-26T04:49:33.855Z,2.50
2019-03-26T04:55:40.409Z,2.80
2019-03-26T05:01:46.891Z,3.67
2019-03-26T05:07:56.755Z,3.40
2019-03-26T05:14:03.312Z,3.20
2019-03-26T05:20:09.892Z,3.90
2019-03-26T05:26:16.420Z,3.90
2019-03-26T05:32:23.007Z,3.43
2019-03-26T05:38:29.621Z,4.03
2019-03-26T05:44:37.458Z,3.67
2019-03-26T05:50:43.990Z,2.87
2019-03-26T05:56:50.536Z,3.20
2019-03-26T06:02:57.081Z,3.60
2019-03-26T06:09:03.970Z,3.37
2019-03-26T06:15:11.372Z,3.60
2019-03-26T06:21:17.867Z,3.50
2019-03-26T06:27:24.403Z,2.87
2019-03-26T06:33:31.000Z,3.30
2019-03-26T06:39:37.540Z,2.97
2019-03-26T06:45:44.086Z,2.97
2019-03-26T06:51:50.681Z,3.00
2019-03-26T06:57:57.315Z,2.60
2019-03-26T07:04:04.062Z,3.57
2019-03-26T07:10:11.329Z,3.90
2019-03-26T07:16:17.829Z,4.00
2019-03-26T07:22:24.380Z,3.50
2019-03-26T07:28:30.945Z,4.77
2019-03-26T07:34:37.637Z,3.53
2019-03-26T07:40:44.276Z,3.77
2019-03-26T07:46:50.945Z,4.13
2019-03-26T07:52:58.017Z,2.87
2019-03-26T07:59:04.562Z,3.30
2019-03-26T08:05:12.077Z,4.40
2019-03-26T08:11:18.677Z,3.60
2019-03-26T08:17:25.264Z,3.33
2019-03-26T08:23:32.112Z,3.50
2019-03-26T08:29:38.737Z,3.57
2019-03-26T08:35:45.339Z,3.93
2019-03-26T08:41:51.970Z,3.97
2019-03-26T08:47:58.494Z,4.40
2019-03-26T08:54:05.155Z,3.53
2019-03-26T09:00:12.361Z,4.47
2019-03-26T09:06:19.031Z,4.57
2019-03-26T09:12:25.599Z,5.27
2019-03-26T09:18:32.118Z,4.60
2019-03-26T09:24:38.661Z,5.40
2019-03-26T09:30:45.238Z,3.87
2019-03-26T09:36:51.886Z,3.30
2019-03-26T09:42:58.441Z,3.10
2019-03-26T09:49:05.078Z,3.93
2019-03-26T09:55:12.196Z,3.30
2019-03-26T10:01:18.700Z,3.60
2019-03-26T10:07:25.214Z,4.57
2019-03-26T10:13:31.938Z,3.50
2019-03-26T10:19:38.570Z,2.80
2019-03-26T10:25:45.079Z,3.10
2019-03-26T10:31:51.917Z,2.50
2019-03-26T10:37:58.685Z,2.63
2019-03-26T10:44:05.290Z,3.03
2019-03-26T10:50:11.984Z,3.00
2019-03-26T10:56:18.531Z,3.10
2019-03-26T11:02:25.056Z,3.87
2019-03-26T11:08:31.630Z,3.47
2019-03-26T11:14:38.226Z,3.40
2019-03-26T11:20:44.781Z,3.83
2019-03-26T11:26:51.702Z,3.17
2019-03-26T11:32:58.391Z,2.80
2019-03-26T11:39:06.242Z,3.37
2019-03-26T11:45:13.884Z,3.40
2019-03-26T11:51:20.408Z,3.97
2019-03-26T11:57:26.985Z,3.33
2019-03-26T12:03:33.543Z,3.20
2019-03-26T12:09:46.110Z,2.93
2019-03-26T12:15:48.425Z,2.73
2019-03-26T12:21:54.961Z,2.70
2019-03-26T12:28:01.571Z,2.60
2019-03-26T12:34:08.341Z,2.47
2019-03-26T12:40:15.232Z,2.47
2019-03-26T12:46:21.779Z,2.83
2019-03-26T12:52:30.134Z,2.33
2019-03-26T12:58:36.894Z,2.97
2019-03-26T13:04:43.406Z,3.20
2019-03-26T13:10:53.845Z,2.80
2019-03-26T13:16:58.568Z,2.47
2019-03-26T13:23:05.327Z,2.97
2019-03-26T13:29:11.892Z,3.03
2019-03-26T13:35:18.655Z,3.07
2019-03-26T13:41:25.163Z,3.30
2019-03-26T13:47:31.786Z,3.10
2019-03-26T13:53:38.377Z,3.13
2019-03-26T13:59:44.955Z,4.10
2019-03-26T14:05:51.553Z,3.13
2019-03-26T14:11:58.142Z,4.20
2019-03-26T14:18:05.014Z,3.67
2019-03-26T14:24:13.321Z,3.67
2019-03-26T14:30:35.259Z,3.53
2019-03-26T14:36:42.057Z,4.33
2019-03-26T14:42:48.855Z,4.53
2019-03-26T14:48:55.455Z,4.50
2019-03-26T14:55:02.553Z,4.20
2019-03-26T15:01:09.264Z,4.70
2019-03-26T15:07:16.079Z,4.07
2019-03-26T15:13:22.663Z,3.80
2019-03-26T15:19:29.245Z,3.23
2019-03-26T15:25:35.914Z,3.67
2019-03-26T15:31:42.556Z,3.63
2019-03-26T15:37:49.152Z,3.37
2019-03-26T15:43:55.773Z,3.00
2019-03-26T15:50:02.412Z,3.00
2019-03-26T15:56:09.311Z,3.63
2019-03-26T16:02:16.019Z,3.50
2019-03-26T16:08:22.591Z,3.67
2019-03-26T16:14:29.293Z,4.13
2019-03-26T16:20:35.907Z,3.67
2019-03-26T16:26:42.458Z,3.47
2019-03-26T16:32:49.079Z,4.10
2019-03-26T16:38:55.702Z,3.73
2019-03-26T16:45:02.237Z,3.50
2019-03-26T16:51:09.776Z,3.97
2019-03-26T16:57:17.767Z,3.83
2019-03-26T17:03:31.133Z,3.90
2019-03-26T17:09:33.061Z,3.87
2019-03-26T17:15:39.775Z,3.10
2019-03-26T17:21:46.407Z,3.10
2019-03-26T17:27:53.080Z,3.60
2019-03-26T17:33:59.772Z,3.13
2019-03-26T17:40:06.806Z,3.80
2019-03-26T17:46:13.560Z,3.87
2019-03-26T17:52:22.617Z,3.53
2019-03-26T17:58:29.780Z,2.83
2019-03-26T18:04:37.000Z,2.90
2019-03-26T18:10:43.682Z,3.13
2019-03-26T18:16:50.503Z,3.30
2019-03-26T18:22:57.301Z,3.67
2019-03-26T18:29:03.958Z,3.30
2019-03-26T18:35:10.743Z,3.73
2019-03-26T18:41:17.308Z,3.60
2019-03-26T18:47:23.996Z,3.20
2019-03-26T18:53:32.946Z,3.33
2019-03-26T18:59:39.510Z,3.67
2019-03-26T19:05:46.053Z,3.57
2019-03-26T19:11:52.799Z,5.03
2019-03-26T19:18:07.411Z,3.93
2019-03-26T19:24:13.997Z,4.20
2019-03-26T19:30:20.559Z,4.40
2019-03-26T19:36:27.203Z,4.20
2019-03-26T19:42:33.890Z,4.70
2019-03-26T19:48:40.480Z,4.63
2019-03-26T19:54:47.084Z,5.03
2019-03-26T20:00:53.844Z,4.90
2019-03-26T20:07:00.435Z,5.17
2019-03-26T20:13:07.293Z,5.90
2019-03-26T20:19:14.473Z,5.87
2019-03-26T20:25:21.197Z,5.57
2019-03-26T20:31:27.896Z,6.47
2019-03-26T20:37:34.552Z,6.87
2019-03-26T20:43:43.536Z,7.00
2019-03-26T20:49:50.303Z,7.43
2019-03-26T20:55:56.933Z,6.80
2019-03-26T21:02:03.494Z,7.33
2019-03-26T21:08:10.124Z,7.30
2019-03-26T21:14:16.804Z,7.20
2019-03-26T21:20:23.512Z,7.10
2019-03-26T21:26:30.156Z,7.47
2019-03-26T21:32:36.734Z,7.23
2019-03-26T21:38:43.414Z,7.20
2019-03-26T21:44:50.071Z,6.87
2019-03-26T21:50:56.633Z,7.73
2019-03-26T21:57:03.358Z,7.07
2019-03-26T22:03:10.071Z,6.87
2019-03-26T22:09:16.621Z,7.30
2019-03-26T22:15:23.314Z,7.03
2019-03-26T22:21:29.823Z,6.80
2019-03-26T22:27:36.372Z,7.73
2019-03-26T22:33:42.935Z,6.90
2019-03-26T22:39:49.494Z,7.50
2019-03-26T22:45:56.070Z,7.10
2019-03-26T22:52:02.659Z,7.20
2019-03-26T22:58:09.196Z,7.40
2019-03-26T23:04:15.790Z,7.53
2019-03-26T23:10:22.603Z,7.70
2019-03-26T23:16:29.312Z,7.80
2019-03-26T23:22:36.002Z,7.40
2019-03-26T23:28:42.973Z,7.40
2019-03-26T23:34:50.969Z,7.73
2019-03-26T23:40:57.897Z,6.80
